sensor_id;sensor_type;location;lat;lon;timestamp;temperature;humidity
75321;DHT22;68337;52.196;5.660;2024-01-15T00:03:58;1.50;99.90
75321;DHT22;68337;52.196;5.660;2024-01-15T00:09:46;2.40;99.90
75321;DHT22;68337;52.196;5.660;2024-01-15T00:12:11;1.50;99.90
75321;DHT22;68337;52.196;5.660;2024-01-15T00:21:21;1.30;99.90
75321;DHT22;68337;52.196;5.660;2024-01-15T00:23:47;1.30;99.90
75321;DHT22;68337;52.196;5.660;2024-01-15T00:29:35;1.30;99.90
75321;DHT22;68337;52.196;5.660;2024-01-15T00:32:03;1.20;99.90
75321;DHT22;68337;52.196;5.660;2024-01-15T00:34:29;1.20;99.90
75321;DHT22;68337;52.196;5.660;2024-01-15T00:36:58;1.10;99.90
75321;DHT22;68337;52.196;5.660;2024-01-15T00:39:26;1.10;99.90
75321;DHT22;68337;52.196;5.660;2024-01-15T00:42:19;1.10;99.90
75321;DHT22;68337;52.196;5.660;2024-01-15T00:44:52;1.60;99.90
75321;DHT22;68337;52.196;5.660;2024-01-15T00:47:30;0.80;99.90
75321;DHT22;68337;52.196;5.660;2024-01-15T00:49:59;0.80;99.90
75321;DHT22;68337;52.196;5.660;2024-01-15T00:52:28;0.70;99.90
75321;DHT22;68337;52.196;5.660;2024-01-15T00:54:56;0.80;99.90
75321;DHT22;68337;52.196;5.660;2024-01-15T00:57:25;0.70;99.90
75321;DHT22;68337;52.196;5.660;2024-01-15T00:59:51;0.80;99.90
75321;DHT22;68337;52.196;5.660;2024-01-15T01:02:16;0.70;99.90
75321;DHT22;68337;52.196;5.660;2024-01-15T01:04:45;0.70;99.90
75321;DHT22;68337;52.196;5.660;2024-01-15T01:07:14;0.70;99.90
75321;DHT22;68337;52.196;5.660;2024-01-15T01:09:39;0.60;99.90
75321;DHT22;68337;52.196;5.660;2024-01-15T01:12:05;0.60;99.90
75321;DHT22;68337;52.196;5.660;2024-01-15T01:14:37;0.60;99.90
75321;DHT22;68337;52.196;5.660;2024-01-15T01:17:35;0.60;99.90
75321;DHT22;68337;52.196;5.660;2024-01-15T01:20:03;0.70;99.90
75321;DHT22;68337;52.196;5.660;2024-01-15T01:23:05;0.70;99.90
75321;DHT22;68337;52.196;5.660;2024-01-15T01:25:31;0.70;99.90
75321;DHT22;68337;52.196;5.660;2024-01-15T01:27:56;0.70;99.90
75321;DHT22;68337;52.196;5.660;2024-01-15T01:30:22;0.80;99.90
75321;DHT22;68337;52.196;5.660;2024-01-15T01:36:45;0.70;99.90
75321;DHT22;68337;52.196;5.660;2024-01-15T01:39:11;0.70;99.90
75321;DHT22;68337;52.196;5.660;2024-01-15T01:41:39;0.70;99.90
75321;DHT22;68337;52.196;5.660;2024-01-15T01:44:11;0.80;99.90
75321;DHT22;68337;52.196;5.660;2024-01-15T01:46:36;0.90;99.90
75321;DHT22;68337;52.196;5.660;2024-01-15T01:49:07;0.90;99.90
75321;DHT22;68337;52.196;5.660;2024-01-15T01:51:35;0.90;99.90
75321;DHT22;68337;52.196;5.660;2024-01-15T01:57:23;0.80;99.90
75321;DHT22;68337;52.196;5.660;2024-01-15T01:59:50;0.80;99.90
75321;DHT22;68337;52.196;5.660;2024-01-15T02:02:16;0.80;99.90
75321;DHT22;68337;52.196;5.660;2024-01-15T02:04:42;0.80;99.90
75321;DHT22;68337;52.196;5.660;2024-01-15T02:07:08;0.80;99.90
75321;DHT22;68337;52.196;5.660;2024-01-15T02:09:38;0.80;99.90
75321;DHT22;68337;52.196;5.660;2024-01-15T02:12:04;0.50;99.90
75321;DHT22;68337;52.196;5.660;2024-01-15T02:14:30;0.70;99.90
75321;DHT22;68337;52.196;5.660;2024-01-15T02:17:32;0.70;99.90
75321;DHT22;68337;52.196;5.660;2024-01-15T02:23:25;0.70;99.90
75321;DHT22;68337;52.196;5.660;2024-01-15T02:28:55;0.70;99.90
75321;DHT22;68337;52.196;5.660;2024-01-15T02:31:21;0.80;99.90
75321;DHT22;68337;52.196;5.660;2024-01-15T02:33:46;0.80;99.90
75321;DHT22;68337;52.196;5.660;2024-01-15T02:36:15;0.90;99.90
75321;DHT22;68337;52.196;5.660;2024-01-15T02:38:41;0.60;99.90
75321;DHT22;68337;52.196;5.660;2024-01-15T02:41:07;1.00;99.90
75321;DHT22;68337;52.196;5.660;2024-01-15T02:43:33;1.00;99.90
75321;DHT22;68337;52.196;5.660;2024-01-15T02:45:58;1.00;99.90
75321;DHT22;68337;52.196;5.660;2024-01-15T02:55:32;1.00;99.90
75321;DHT22;68337;52.196;5.660;2024-01-15T02:57:58;1.00;99.90
75321;DHT22;68337;52.196;5.660;2024-01-15T03:00:34;1.00;99.90
75321;DHT22;68337;52.196;5.660;2024-01-15T03:06:30;1.10;99.90
75321;DHT22;68337;52.196;5.660;2024-01-15T03:08:56;1.00;99.90
75321;DHT22;68337;52.196;5.660;2024-01-15T03:11:22;1.00;99.90
75321;DHT22;68337;52.196;5.660;2024-01-15T03:13:47;0.90;99.90
75321;DHT22;68337;52.196;5.660;2024-01-15T03:16:13;0.90;99.90
75321;DHT22;68337;52.196;5.660;2024-01-15T03:18:39;1.00;99.90
75321;DHT22;68337;52.196;5.660;2024-01-15T03:21:05;1.10;99.90
75321;DHT22;68337;52.196;5.660;2024-01-15T03:23:31;1.10;99.90
75321;DHT22;68337;52.196;5.660;2024-01-15T03:25:57;1.10;99.90
75321;DHT22;68337;52.196;5.660;2024-01-15T03:28:26;1.10;99.90
75321;DHT22;68337;52.196;5.660;2024-01-15T03:30:51;1.50;99.90
75321;DHT22;68337;52.196;5.660;2024-01-15T03:33:17;1.50;99.90
75321;DHT22;68337;52.196;5.660;2024-01-15T03:35:42;1.60;99.90
75321;DHT22;68337;52.196;5.660;2024-01-15T03:38:08;1.60;99.90
75321;DHT22;68337;52.196;5.660;2024-01-15T03:40:34;1.60;99.90
75321;DHT22;68337;52.196;5.660;2024-01-15T03:43:02;1.50;99.90
75321;DHT22;68337;52.196;5.660;2024-01-15T03:45:28;1.60;99.90
75321;DHT22;68337;52.196;5.660;2024-01-15T03:47:54;1.50;99.90
75321;DHT22;68337;52.196;5.660;2024-01-15T03:50:19;1.40;99.90
75321;DHT22;68337;52.196;5.660;2024-01-15T03:52:45;1.50;99.90
75321;DHT22;68337;52.196;5.660;2024-01-15T03:55:10;1.50;99.90
75321;DHT22;68337;52.196;5.660;2024-01-15T03:57:36;1.70;99.90
75321;DHT22;68337;52.196;5.660;2024-01-15T04:00:03;1.60;99.90
75321;DHT22;68337;52.196;5.660;2024-01-15T04:02:31;1.50;99.90
75321;DHT22;68337;52.196;5.660;2024-01-15T04:08:56;1.50;99.90
75321;DHT22;68337;52.196;5.660;2024-01-15T04:11:42;1.50;99.90
75321;DHT22;68337;52.196;5.660;2024-01-15T04:14:10;1.30;99.90
75321;DHT22;68337;52.196;5.660;2024-01-15T04:16:39;1.20;99.90
75321;DHT22;68337;52.196;5.660;2024-01-15T04:19:06;1.30;99.90
75321;DHT22;68337;52.196;5.660;2024-01-15T04:21:31;1.20;99.90
75321;DHT22;68337;52.196;5.660;2024-01-15T04:23:57;1.20;99.90
75321;DHT22;68337;52.196;5.660;2024-01-15T04:26:26;1.20;99.90
75321;DHT22;68337;52.196;5.660;2024-01-15T04:28:54;1.20;99.90
75321;DHT22;68337;52.196;5.660;2024-01-15T04:31:22;1.20;99.90
75321;DHT22;68337;52.196;5.660;2024-01-15T04:33:48;1.10;99.90
75321;DHT22;68337;52.196;5.660;2024-01-15T04:36:23;1.10;99.90
75321;DHT22;68337;52.196;5.660;2024-01-15T04:38:49;1.10;99.90
75321;DHT22;68337;52.196;5.660;2024-01-15T04:41:16;1.20;99.90
75321;DHT22;68337;52.196;5.660;2024-01-15T04:43:42;1.30;99.90
75321;DHT22;68337;52.196;5.660;2024-01-15T04:46:08;1.10;99.90
75321;DHT22;68337;52.196;5.660;2024-01-15T04:48:38;1.30;99.90
75321;DHT22;68337;52.196;5.660;2024-01-15T04:51:04;1.30;99.90
75321;DHT22;68337;52.196;5.660;2024-01-15T04:53:30;1.30;99.90
75321;DHT22;68337;52.196;5.660;2024-01-15T04:55:56;1.20;99.90
75321;DHT22;68337;52.196;5.660;2024-01-15T04:58:22;1.30;99.90
75321;DHT22;68337;52.196;5.660;2024-01-15T05:00:53;1.20;99.90
75321;DHT22;68337;52.196;5.660;2024-01-15T05:03:19;1.20;99.90
75321;DHT22;68337;52.196;5.660;2024-01-15T05:05:45;1.20;99.90
75321;DHT22;68337;52.196;5.660;2024-01-15T05:08:14;1.20;99.90
75321;DHT22;68337;52.196;5.660;2024-01-15T05:10:40;1.20;99.90
75321;DHT22;68337;52.196;5.660;2024-01-15T05:13:08;1.30;99.90
75321;DHT22;68337;52.196;5.660;2024-01-15T05:15:37;1.20;99.90
75321;DHT22;68337;52.196;5.660;2024-01-15T05:18:05;1.30;99.90
75321;DHT22;68337;52.196;5.660;2024-01-15T05:20:31;1.30;99.90
75321;DHT22;68337;52.196;5.660;2024-01-15T05:23:00;1.30;99.90
75321;DHT22;68337;52.196;5.660;2024-01-15T05:28:48;0.50;99.90
75321;DHT22;68337;52.196;5.660;2024-01-15T05:31:17;1.30;99.90
75321;DHT22;68337;52.196;5.660;2024-01-15T05:33:45;1.30;99.90
75321;DHT22;68337;52.196;5.660;2024-01-15T05:36:11;1.40;99.90
75321;DHT22;68337;52.196;5.660;2024-01-15T05:38:37;1.50;99.90
75321;DHT22;68337;52.196;5.660;2024-01-15T05:41:06;1.60;99.90
75321;DHT22;68337;52.196;5.660;2024-01-15T05:43:34;1.60;99.90
75321;DHT22;68337;52.196;5.660;2024-01-15T05:46:00;1.70;99.90
75321;DHT22;68337;52.196;5.660;2024-01-15T05:48:25;1.60;99.90
75321;DHT22;68337;52.196;5.660;2024-01-15T05:51:13;1.60;99.90
75321;DHT22;68337;52.196;5.660;2024-01-15T05:53:39;1.60;99.90
75321;DHT22;68337;52.196;5.660;2024-01-15T05:56:12;1.50;99.90
75321;DHT22;68337;52.196;5.660;2024-01-15T05:58:41;1.50;99.90
75321;DHT22;68337;52.196;5.660;2024-01-15T06:01:07;1.50;99.90
75321;DHT22;68337;52.196;5.660;2024-01-15T06:03:35;1.60;99.90
75321;DHT22;68337;52.196;5.660;2024-01-15T06:06:01;1.50;99.90
75321;DHT22;68337;52.196;5.660;2024-01-15T06:08:41;1.50;99.90
75321;DHT22;68337;52.196;5.660;2024-01-15T06:14:29;1.70;99.90
75321;DHT22;68337;52.196;5.660;2024-01-15T06:17:13;1.60;99.90
75321;DHT22;68337;52.196;5.660;2024-01-15T06:19:39;1.40;99.90
75321;DHT22;68337;52.196;5.660;2024-01-15T06:22:04;1.30;99.90
75321;DHT22;68337;52.196;5.660;2024-01-15T06:24:30;1.50;99.90
75321;DHT22;68337;52.196;5.660;2024-01-15T06:26:56;1.40;99.90
75321;DHT22;68337;52.196;5.660;2024-01-15T06:29:21;1.40;99.90
75321;DHT22;68337;52.196;5.660;2024-01-15T06:31:50;1.50;99.90
75321;DHT22;68337;52.196;5.660;2024-01-15T06:34:15;1.00;99.90
75321;DHT22;68337;52.196;5.660;2024-01-15T06:36:44;1.20;99.90
75321;DHT22;68337;52.196;5.660;2024-01-15T06:39:12;1.40;99.90
75321;DHT22;68337;52.196;5.660;2024-01-15T06:41:40;1.30;99.90
75321;DHT22;68337;52.196;5.660;2024-01-15T06:44:11;1.40;99.90
75321;DHT22;68337;52.196;5.660;2024-01-15T06:46:45;1.50;99.90
75321;DHT22;68337;52.196;5.660;2024-01-15T06:49:13;1.40;99.90
75321;DHT22;68337;52.196;5.660;2024-01-15T06:51:39;1.40;99.90
75321;DHT22;68337;52.196;5.660;2024-01-15T06:54:05;1.40;99.90
75321;DHT22;68337;52.196;5.660;2024-01-15T06:56:31;1.30;99.90
75321;DHT22;68337;52.196;5.660;2024-01-15T06:58:57;1.40;99.90
75321;DHT22;68337;52.196;5.660;2024-01-15T07:01:23;1.40;99.90
75321;DHT22;68337;52.196;5.660;2024-01-15T07:03:49;1.30;99.90
75321;DHT22;68337;52.196;5.660;2024-01-15T07:06:15;1.30;99.90
75321;DHT22;68337;52.196;5.660;2024-01-15T07:08:41;1.30;99.90
75321;DHT22;68337;52.196;5.660;2024-01-15T07:11:07;1.30;99.90
75321;DHT22;68337;52.196;5.660;2024-01-15T07:13:38;1.40;99.90
75321;DHT22;68337;52.196;5.660;2024-01-15T07:16:04;1.30;99.90
75321;DHT22;68337;52.196;5.660;2024-01-15T07:18:30;1.50;99.90
75321;DHT22;68337;52.196;5.660;2024-01-15T07:20:55;1.40;99.90
75321;DHT22;68337;52.196;5.660;2024-01-15T07:23:21;1.30;99.90
75321;DHT22;68337;52.196;5.660;2024-01-15T07:25:47;1.30;99.90
75321;DHT22;68337;52.196;5.660;2024-01-15T07:28:15;1.30;99.90
75321;DHT22;68337;52.196;5.660;2024-01-15T07:30:44;1.40;99.90
75321;DHT22;68337;52.196;5.660;2024-01-15T07:33:10;1.50;99.90
75321;DHT22;68337;52.196;5.660;2024-01-15T07:35:36;1.40;99.90
75321;DHT22;68337;52.196;5.660;2024-01-15T07:38:01;1.60;99.90
75321;DHT22;68337;52.196;5.660;2024-01-15T07:40:28;1.40;99.90
75321;DHT22;68337;52.196;5.660;2024-01-15T07:42:53;1.30;99.90
75321;DHT22;68337;52.196;5.660;2024-01-15T07:45:19;1.40;99.90
75321;DHT22;68337;52.196;5.660;2024-01-15T07:47:44;1.40;99.90
75321;DHT22;68337;52.196;5.660;2024-01-15T07:50:10;1.40;99.90
75321;DHT22;68337;52.196;5.660;2024-01-15T07:52:36;1.30;99.90
75321;DHT22;68337;52.196;5.660;2024-01-15T07:55:02;1.40;99.90
75321;DHT22;68337;52.196;5.660;2024-01-15T07:57:30;1.30;99.90
75321;DHT22;68337;52.196;5.660;2024-01-15T07:59:56;1.50;99.90
75321;DHT22;68337;52.196;5.660;2024-01-15T08:02:22;1.50;99.90
75321;DHT22;68337;52.196;5.660;2024-01-15T08:04:47;1.50;99.90
75321;DHT22;68337;52.196;5.660;2024-01-15T08:07:13;1.50;99.90
75321;DHT22;68337;52.196;5.660;2024-01-15T08:09:39;1.40;99.90
75321;DHT22;68337;52.196;5.660;2024-01-15T08:12:05;1.60;99.90
75321;DHT22;68337;52.196;5.660;2024-01-15T08:14:31;1.40;99.90
75321;DHT22;68337;52.196;5.660;2024-01-15T08:16:57;1.40;99.90
75321;DHT22;68337;52.196;5.660;2024-01-15T08:19:23;1.40;99.90
75321;DHT22;68337;52.196;5.660;2024-01-15T08:21:49;1.40;99.90
75321;DHT22;68337;52.196;5.660;2024-01-15T08:24:15;1.40;99.90
75321;DHT22;68337;52.196;5.660;2024-01-15T08:26:40;1.30;99.90
75321;DHT22;68337;52.196;5.660;2024-01-15T08:29:06;1.20;99.90
75321;DHT22;68337;52.196;5.660;2024-01-15T08:31:32;1.30;99.90
75321;DHT22;68337;52.196;5.660;2024-01-15T08:33:57;1.30;99.90
75321;DHT22;68337;52.196;5.660;2024-01-15T08:38:51;1.30;99.90
75321;DHT22;68337;52.196;5.660;2024-01-15T08:41:17;1.40;99.90
75321;DHT22;68337;52.196;5.660;2024-01-15T08:43:43;1.40;99.90
75321;DHT22;68337;52.196;5.660;2024-01-15T08:46:09;1.40;99.90
75321;DHT22;68337;52.196;5.660;2024-01-15T08:48:34;1.40;99.90
75321;DHT22;68337;52.196;5.660;2024-01-15T08:51:00;1.50;99.90
75321;DHT22;68337;52.196;5.660;2024-01-15T08:53:28;1.50;99.90
75321;DHT22;68337;52.196;5.660;2024-01-15T08:55:54;1.50;99.90
75321;DHT22;68337;52.196;5.660;2024-01-15T08:58:22;1.40;99.90
75321;DHT22;68337;52.196;5.660;2024-01-15T09:00:48;1.40;99.90
75321;DHT22;68337;52.196;5.660;2024-01-15T09:03:14;1.50;99.90
75321;DHT22;68337;52.196;5.660;2024-01-15T09:05:39;1.50;99.90
75321;DHT22;68337;52.196;5.660;2024-01-15T09:08:06;1.40;99.90
75321;DHT22;68337;52.196;5.660;2024-01-15T09:10:32;1.40;99.90
75321;DHT22;68337;52.196;5.660;2024-01-15T09:12:57;1.60;99.90
75321;DHT22;68337;52.196;5.660;2024-01-15T09:15:23;1.80;99.90
75321;DHT22;68337;52.196;5.660;2024-01-15T09:17:49;2.00;99.90
75321;DHT22;68337;52.196;5.660;2024-01-15T09:20:15;2.10;99.90
75321;DHT22;68337;52.196;5.660;2024-01-15T09:22:40;2.10;99.90
75321;DHT22;68337;52.196;5.660;2024-01-15T09:25:08;2.20;99.90
75321;DHT22;68337;52.196;5.660;2024-01-15T09:27:35;2.30;99.90
75321;DHT22;68337;52.196;5.660;2024-01-15T09:30:01;2.30;99.90
75321;DHT22;68337;52.196;5.660;2024-01-15T09:32:27;2.30;99.90
75321;DHT22;68337;52.196;5.660;2024-01-15T09:34:53;2.40;99.90
75321;DHT22;68337;52.196;5.660;2024-01-15T09:37:18;2.40;99.90
75321;DHT22;68337;52.196;5.660;2024-01-15T09:39:44;2.50;99.90
75321;DHT22;68337;52.196;5.660;2024-01-15T09:42:10;2.40;99.90
75321;DHT22;68337;52.196;5.660;2024-01-15T09:44:39;2.40;99.90
75321;DHT22;68337;52.196;5.660;2024-01-15T09:47:05;2.30;99.90
75321;DHT22;68337;52.196;5.660;2024-01-15T09:49:31;2.30;99.90
75321;DHT22;68337;52.196;5.660;2024-01-15T09:51:58;2.30;99.90
75321;DHT22;68337;52.196;5.660;2024-01-15T09:54:24;2.40;99.90
75321;DHT22;68337;52.196;5.660;2024-01-15T09:56:50;2.50;99.90
75321;DHT22;68337;52.196;5.660;2024-01-15T09:59:19;2.60;99.90
75321;DHT22;68337;52.196;5.660;2024-01-15T10:01:45;2.40;99.90
75321;DHT22;68337;52.196;5.660;2024-01-15T10:04:13;2.30;99.90
75321;DHT22;68337;52.196;5.660;2024-01-15T10:06:43;2.20;99.90
75321;DHT22;68337;52.196;5.660;2024-01-15T10:09:14;2.20;99.90
75321;DHT22;68337;52.196;5.660;2024-01-15T10:11:44;2.20;99.90
75321;DHT22;68337;52.196;5.660;2024-01-15T10:14:11;2.30;99.90
75321;DHT22;68337;52.196;5.660;2024-01-15T10:16:41;2.50;99.90
75321;DHT22;68337;52.196;5.660;2024-01-15T10:19:08;2.60;99.90
75321;DHT22;68337;52.196;5.660;2024-01-15T10:21:36;2.90;99.90
75321;DHT22;68337;52.196;5.660;2024-01-15T10:24:05;3.20;99.90
75321;DHT22;68337;52.196;5.660;2024-01-15T10:26:34;3.20;99.90
75321;DHT22;68337;52.196;5.660;2024-01-15T10:28:59;3.20;99.90
75321;DHT22;68337;52.196;5.660;2024-01-15T10:31:33;3.00;99.90
75321;DHT22;68337;52.196;5.660;2024-01-15T10:34:19;2.90;99.90
75321;DHT22;68337;52.196;5.660;2024-01-15T10:36:45;3.00;99.90
75321;DHT22;68337;52.196;5.660;2024-01-15T10:39:13;3.20;99.90
75321;DHT22;68337;52.196;5.660;2024-01-15T10:41:42;3.10;99.90
75321;DHT22;68337;52.196;5.660;2024-01-15T10:44:08;3.00;99.90
75321;DHT22;68337;52.196;5.660;2024-01-15T10:46:37;2.90;99.90
75321;DHT22;68337;52.196;5.660;2024-01-15T10:49:03;2.70;99.90
75321;DHT22;68337;52.196;5.660;2024-01-15T10:51:29;2.60;99.90
75321;DHT22;68337;52.196;5.660;2024-01-15T10:54:02;2.60;99.90
75321;DHT22;68337;52.196;5.660;2024-01-15T10:56:41;2.60;99.90
75321;DHT22;68337;52.196;5.660;2024-01-15T11:02:16;2.70;99.90
75321;DHT22;68337;52.196;5.660;2024-01-15T11:04:42;2.80;99.90
75321;DHT22;68337;52.196;5.660;2024-01-15T11:07:08;2.70;99.90
75321;DHT22;68337;52.196;5.660;2024-01-15T11:09:36;2.60;99.90
75321;DHT22;68337;52.196;5.660;2024-01-15T11:12:13;2.80;99.90
75321;DHT22;68337;52.196;5.660;2024-01-15T11:14:45;2.60;99.90
75321;DHT22;68337;52.196;5.660;2024-01-15T11:20:29;3.00;99.90
75321;DHT22;68337;52.196;5.660;2024-01-15T11:23:00;2.90;99.90
75321;DHT22;68337;52.196;5.660;2024-01-15T11:25:34;2.90;99.90
75321;DHT22;68337;52.196;5.660;2024-01-15T11:28:48;2.90;99.90
75321;DHT22;68337;52.196;5.660;2024-01-15T11:37:27;3.30;99.90
75321;DHT22;68337;52.196;5.660;2024-01-15T11:39:54;3.50;99.90
75321;DHT22;68337;52.196;5.660;2024-01-15T11:42:22;3.40;99.90
75321;DHT22;68337;52.196;5.660;2024-01-15T11:44:48;3.40;99.90
75321;DHT22;68337;52.196;5.660;2024-01-15T11:47:14;3.60;99.90
75321;DHT22;68337;52.196;5.660;2024-01-15T11:49:59;3.60;99.90
75321;DHT22;68337;52.196;5.660;2024-01-15T11:52:26;3.60;99.90
75321;DHT22;68337;52.196;5.660;2024-01-15T11:55:11;3.80;99.90
75321;DHT22;68337;52.196;5.660;2024-01-15T11:57:45;3.80;99.90
75321;DHT22;68337;52.196;5.660;2024-01-15T12:00:12;4.00;99.90
75321;DHT22;68337;52.196;5.660;2024-01-15T12:02:45;4.10;99.90
75321;DHT22;68337;52.196;5.660;2024-01-15T12:05:15;3.90;99.90
75321;DHT22;68337;52.196;5.660;2024-01-15T12:07:42;3.70;99.90
75321;DHT22;68337;52.196;5.660;2024-01-15T12:10:09;3.50;99.90
75321;DHT22;68337;52.196;5.660;2024-01-15T12:12:58;3.30;99.90
75321;DHT22;68337;52.196;5.660;2024-01-15T12:15:28;2.90;99.90
75321;DHT22;68337;52.196;5.660;2024-01-15T12:17:55;2.50;99.90
75321;DHT22;68337;52.196;5.660;2024-01-15T12:20:24;2.30;99.90
75321;DHT22;68337;52.196;5.660;2024-01-15T12:22:49;2.20;99.90
75321;DHT22;68337;52.196;5.660;2024-01-15T12:25:15;2.30;99.90
75321;DHT22;68337;52.196;5.660;2024-01-15T12:27:41;2.40;99.90
75321;DHT22;68337;52.196;5.660;2024-01-15T12:30:09;2.50;99.90
75321;DHT22;68337;52.196;5.660;2024-01-15T12:32:35;2.50;99.90
75321;DHT22;68337;52.196;5.660;2024-01-15T12:35:01;2.70;99.90
75321;DHT22;68337;52.196;5.660;2024-01-15T12:37:27;2.70;99.90
75321;DHT22;68337;52.196;5.660;2024-01-15T12:39:54;2.80;99.90
75321;DHT22;68337;52.196;5.660;2024-01-15T12:42:23;2.90;99.90
75321;DHT22;68337;52.196;5.660;2024-01-15T12:44:49;3.00;99.90
75321;DHT22;68337;52.196;5.660;2024-01-15T12:47:15;3.20;99.90
75321;DHT22;68337;52.196;5.660;2024-01-15T12:49:46;3.30;99.90
75321;DHT22;68337;52.196;5.660;2024-01-15T12:52:13;3.30;99.90
75321;DHT22;68337;52.196;5.660;2024-01-15T12:54:39;3.20;99.90
75321;DHT22;68337;52.196;5.660;2024-01-15T12:57:04;3.20;99.90
75321;DHT22;68337;52.196;5.660;2024-01-15T12:59:30;3.00;99.90
75321;DHT22;68337;52.196;5.660;2024-01-15T13:01:56;2.90;99.90
75321;DHT22;68337;52.196;5.660;2024-01-15T13:04:24;2.80;99.90
75321;DHT22;68337;52.196;5.660;2024-01-15T13:06:50;2.70;99.90
75321;DHT22;68337;52.196;5.660;2024-01-15T13:09:17;2.60;99.90
75321;DHT22;68337;52.196;5.660;2024-01-15T13:11:44;2.70;99.90
75321;DHT22;68337;52.196;5.660;2024-01-15T13:14:10;2.60;99.90
75321;DHT22;68337;52.196;5.660;2024-01-15T13:16:36;2.50;99.90
75321;DHT22;68337;52.196;5.660;2024-01-15T13:19:02;2.60;99.90
75321;DHT22;68337;52.196;5.660;2024-01-15T13:21:29;2.60;99.90
75321;DHT22;68337;52.196;5.660;2024-01-15T13:23:55;2.70;99.90
75321;DHT22;68337;52.196;5.660;2024-01-15T13:26:21;2.60;99.90
75321;DHT22;68337;52.196;5.660;2024-01-15T13:28:47;2.70;99.90
75321;DHT22;68337;52.196;5.660;2024-01-15T13:31:13;2.60;99.90
75321;DHT22;68337;52.196;5.660;2024-01-15T13:33:39;2.50;99.90
75321;DHT22;68337;52.196;5.660;2024-01-15T13:36:05;2.60;99.90
75321;DHT22;68337;52.196;5.660;2024-01-15T13:38:33;2.80;99.90
75321;DHT22;68337;52.196;5.660;2024-01-15T13:41:02;2.80;99.90
75321;DHT22;68337;52.196;5.660;2024-01-15T13:43:28;2.70;99.90
75321;DHT22;68337;52.196;5.660;2024-01-15T13:45:54;2.90;99.90
75321;DHT22;68337;52.196;5.660;2024-01-15T13:48:23;2.90;99.90
75321;DHT22;68337;52.196;5.660;2024-01-15T13:50:48;3.00;99.90
75321;DHT22;68337;52.196;5.660;2024-01-15T13:53:16;2.80;99.90
75321;DHT22;68337;52.196;5.660;2024-01-15T13:55:41;3.00;99.90
75321;DHT22;68337;52.196;5.660;2024-01-15T13:58:07;3.00;99.90
75321;DHT22;68337;52.196;5.660;2024-01-15T14:00:33;2.90;99.90
75321;DHT22;68337;52.196;5.660;2024-01-15T14:02:59;2.90;99.90
75321;DHT22;68337;52.196;5.660;2024-01-15T14:05:24;2.70;99.90
75321;DHT22;68337;52.196;5.660;2024-01-15T14:07:50;2.40;99.90
75321;DHT22;68337;52.196;5.660;2024-01-15T14:10:15;2.30;99.90
75321;DHT22;68337;52.196;5.660;2024-01-15T14:12:41;2.30;99.90
75321;DHT22;68337;52.196;5.660;2024-01-15T14:15:09;2.30;99.90
75321;DHT22;68337;52.196;5.660;2024-01-15T14:17:35;2.10;99.90
75321;DHT22;68337;52.196;5.660;2024-01-15T14:20:01;2.20;99.90
75321;DHT22;68337;52.196;5.660;2024-01-15T14:22:27;2.30;99.90
75321;DHT22;68337;52.196;5.660;2024-01-15T14:24:52;2.20;99.90
75321;DHT22;68337;52.196;5.660;2024-01-15T14:27:19;2.30;99.90
75321;DHT22;68337;52.196;5.660;2024-01-15T14:29:45;2.30;99.90
75321;DHT22;68337;52.196;5.660;2024-01-15T14:32:11;2.30;99.90
75321;DHT22;68337;52.196;5.660;2024-01-15T14:34:37;2.30;99.90
75321;DHT22;68337;52.196;5.660;2024-01-15T14:37:03;2.50;99.90
75321;DHT22;68337;52.196;5.660;2024-01-15T14:39:31;2.50;99.90
75321;DHT22;68337;52.196;5.660;2024-01-15T14:42:00;2.50;99.90
75321;DHT22;68337;52.196;5.660;2024-01-15T14:44:26;2.50;99.90
75321;DHT22;68337;52.196;5.660;2024-01-15T14:46:51;2.40;99.90
75321;DHT22;68337;52.196;5.660;2024-01-15T14:49:18;2.30;99.90
75321;DHT22;68337;52.196;5.660;2024-01-15T14:51:43;2.20;99.90
75321;DHT22;68337;52.196;5.660;2024-01-15T14:54:10;2.10;99.90
75321;DHT22;68337;52.196;5.660;2024-01-15T14:56:36;2.10;99.90
75321;DHT22;68337;52.196;5.660;2024-01-15T14:59:04;2.10;99.90
75321;DHT22;68337;52.196;5.660;2024-01-15T15:01:36;2.10;99.90
75321;DHT22;68337;52.196;5.660;2024-01-15T15:04:02;2.00;99.90
75321;DHT22;68337;52.196;5.660;2024-01-15T15:06:28;2.00;99.90
75321;DHT22;68337;52.196;5.660;2024-01-15T15:08:54;2.00;99.90
75321;DHT22;68337;52.196;5.660;2024-01-15T15:11:34;2.00;99.90
75321;DHT22;68337;52.196;5.660;2024-01-15T15:14:00;2.00;99.90
75321;DHT22;68337;52.196;5.660;2024-01-15T15:16:26;2.00;99.90
75321;DHT22;68337;52.196;5.660;2024-01-15T15:22:07;2.20;99.90
75321;DHT22;68337;52.196;5.660;2024-01-15T15:24:39;2.20;99.90
75321;DHT22;68337;52.196;5.660;2024-01-15T15:27:07;2.10;99.90
75321;DHT22;68337;52.196;5.660;2024-01-15T15:29:33;2.20;99.90
75321;DHT22;68337;52.196;5.660;2024-01-15T15:32:01;2.20;99.90
75321;DHT22;68337;52.196;5.660;2024-01-15T15:34:27;2.20;99.90
75321;DHT22;68337;52.196;5.660;2024-01-15T15:36:52;2.20;99.90
75321;DHT22;68337;52.196;5.660;2024-01-15T15:39:18;2.20;99.90
75321;DHT22;68337;52.196;5.660;2024-01-15T15:41:44;2.20;99.90
75321;DHT22;68337;52.196;5.660;2024-01-15T15:44:13;2.20;99.90
75321;DHT22;68337;52.196;5.660;2024-01-15T15:46:42;2.30;99.90
75321;DHT22;68337;52.196;5.660;2024-01-15T15:49:08;2.30;99.90
75321;DHT22;68337;52.196;5.660;2024-01-15T15:51:36;2.40;99.90
75321;DHT22;68337;52.196;5.660;2024-01-15T15:54:03;2.40;99.90
75321;DHT22;68337;52.196;5.660;2024-01-15T15:56:34;2.40;99.90
75321;DHT22;68337;52.196;5.660;2024-01-15T15:59:06;2.30;99.90
75321;DHT22;68337;52.196;5.660;2024-01-15T16:01:37;2.20;99.90
75321;DHT22;68337;52.196;5.660;2024-01-15T16:04:03;2.10;99.90
75321;DHT22;68337;52.196;5.660;2024-01-15T16:06:32;2.00;99.90
75321;DHT22;68337;52.196;5.660;2024-01-15T16:08:57;2.00;99.90
75321;DHT22;68337;52.196;5.660;2024-01-15T16:11:23;1.80;99.90
75321;DHT22;68337;52.196;5.660;2024-01-15T16:13:49;1.80;99.90
75321;DHT22;68337;52.196;5.660;2024-01-15T16:16:15;1.90;99.90
75321;DHT22;68337;52.196;5.660;2024-01-15T16:18:41;1.70;99.90
75321;DHT22;68337;52.196;5.660;2024-01-15T16:21:06;1.70;99.90
75321;DHT22;68337;52.196;5.660;2024-01-15T16:23:32;1.70;99.90
75321;DHT22;68337;52.196;5.660;2024-01-15T16:25:58;1.70;99.90
75321;DHT22;68337;52.196;5.660;2024-01-15T16:28:23;1.70;99.90
75321;DHT22;68337;52.196;5.660;2024-01-15T16:30:49;1.70;99.90
75321;DHT22;68337;52.196;5.660;2024-01-15T16:33:15;1.80;99.90
75321;DHT22;68337;52.196;5.660;2024-01-15T16:35:40;1.80;99.90
75321;DHT22;68337;52.196;5.660;2024-01-15T16:38:06;1.80;99.90
75321;DHT22;68337;52.196;5.660;2024-01-15T16:40:32;1.80;99.90
75321;DHT22;68337;52.196;5.660;2024-01-15T16:42:57;1.80;99.90
75321;DHT22;68337;52.196;5.660;2024-01-15T16:45:23;1.80;99.90
75321;DHT22;68337;52.196;5.660;2024-01-15T16:47:49;1.80;99.90
75321;DHT22;68337;52.196;5.660;2024-01-15T16:50:17;1.80;99.90
75321;DHT22;68337;52.196;5.660;2024-01-15T16:52:44;1.80;99.90
75321;DHT22;68337;52.196;5.660;2024-01-15T16:55:09;1.80;99.90
75321;DHT22;68337;52.196;5.660;2024-01-15T16:57:35;1.70;99.90